createdAt,value
2023-01-09T00:00:49.780Z,3.34
2023-01-09T00:03:26.747Z,3.33
2023-01-09T00:05:56.436Z,3.33
2023-01-09T00:08:26.359Z,3.31
2023-01-09T00:10:56.267Z,3.28
2023-01-09T00:13:25.931Z,3.27
2023-01-09T00:15:56.254Z,3.24
2023-01-09T00:18:26.330Z,3.21
2023-01-09T00:21:02.274Z,3.17
2023-01-09T00:23:32.340Z,3.15
2023-01-09T00:26:06.182Z,3.14
2023-01-09T00:28:36.731Z,3.14
2023-01-09T00:31:09.401Z,3.15
2023-01-09T00:34:05.978Z,3.16
2023-01-09T00:36:38.099Z,3.16
2023-01-09T00:39:08.227Z,3.17
2023-01-09T00:41:53.138Z,3.17
2023-01-09T00:44:39.546Z,3.14
2023-01-09T00:47:22.039Z,3.13
2023-01-09T00:49:53.769Z,3.11
2023-01-09T00:52:23.480Z,3.09
2023-01-09T00:54:53.143Z,3.08
2023-01-09T00:57:22.571Z,3.06
2023-01-09T00:59:52.887Z,3.03
2023-01-09T01:02:22.309Z,2.98
2023-01-09T01:05:09.930Z,2.93
2023-01-09T01:07:39.286Z,2.88
2023-01-09T01:10:30.488Z,2.86
2023-01-09T01:13:00.064Z,2.82
2023-01-09T01:15:29.781Z,2.79
2023-01-09T01:17:59.186Z,2.79
2023-01-09T01:20:28.789Z,2.79
2023-01-09T01:22:58.303Z,2.79
2023-01-09T01:25:28.729Z,2.77
2023-01-09T01:27:58.223Z,2.77
2023-01-09T01:30:28.206Z,2.76
2023-01-09T01:32:57.651Z,2.75
2023-01-09T01:35:27.168Z,2.76
2023-01-09T01:37:57.719Z,2.77
2023-01-09T01:40:28.681Z,2.78
2023-01-09T01:42:59.065Z,2.78
2023-01-09T01:45:30.694Z,2.77
2023-01-09T01:48:09.530Z,2.75
2023-01-09T01:51:06.637Z,2.73
2023-01-09T01:53:53.949Z,2.70
2023-01-09T01:56:32.751Z,2.71
2023-01-09T01:59:24.914Z,2.75
2023-01-09T02:01:59.974Z,2.78
2023-01-09T02:04:33.308Z,2.79
2023-01-09T02:07:09.262Z,2.78
2023-01-09T02:09:42.320Z,2.78
2023-01-09T02:12:26.002Z,2.74
2023-01-09T02:15:19.695Z,2.72
2023-01-09T02:17:54.692Z,2.69
2023-01-09T02:20:46.804Z,2.66
2023-01-09T02:23:46.998Z,2.59
2023-01-09T02:26:35.238Z,2.49
2023-01-09T02:29:16.395Z,2.41
2023-01-09T02:32:22.635Z,2.36
2023-01-09T02:35:18.073Z,2.30
2023-01-09T02:38:24.592Z,2.28
2023-01-09T02:41:20.720Z,2.29
2023-01-09T02:44:13.858Z,2.22
2023-01-09T02:46:43.270Z,2.17
2023-01-09T02:49:17.199Z,2.19
2023-01-09T02:52:24.947Z,2.26
2023-01-09T02:55:12.393Z,2.29
2023-01-09T02:58:19.515Z,2.29
2023-01-09T03:00:55.733Z,2.32
2023-01-09T03:03:38.506Z,2.35
2023-01-09T03:06:21.423Z,2.39
2023-01-09T03:09:01.552Z,2.42
2023-01-09T03:11:38.726Z,2.43
2023-01-09T03:14:16.442Z,2.42
2023-01-09T03:16:50.005Z,2.40
2023-01-09T03:19:24.274Z,2.41
2023-01-09T03:21:56.205Z,2.42
2023-01-09T03:24:25.424Z,2.40
2023-01-09T03:26:55.613Z,2.38
2023-01-09T03:29:24.792Z,2.37
2023-01-09T03:31:54.937Z,2.34
2023-01-09T03:34:24.417Z,2.31
2023-01-09T03:36:53.790Z,2.29
2023-01-09T03:39:23.044Z,2.28
2023-01-09T03:41:52.519Z,2.28
2023-01-09T03:44:22.103Z,2.31
2023-01-09T03:46:51.745Z,2.33
2023-01-09T03:49:21.958Z,2.35
2023-01-09T03:51:51.462Z,2.38
2023-01-09T03:54:20.970Z,2.41
2023-01-09T03:56:50.827Z,2.43
2023-01-09T03:59:20.384Z,2.46
2023-01-09T04:01:50.824Z,2.46
2023-01-09T04:04:20.567Z,2.46
2023-01-09T04:06:52.401Z,2.47
2023-01-09T04:09:21.938Z,2.49
2023-01-09T04:11:54.601Z,2.52
2023-01-09T04:14:27.416Z,2.53
2023-01-09T04:16:57.234Z,2.53
2023-01-09T04:19:27.223Z,2.53
2023-01-09T04:21:57.039Z,2.54
2023-01-09T04:24:26.747Z,2.58
2023-01-09T04:26:58.681Z,2.59
2023-01-09T04:29:28.481Z,2.57
2023-01-09T04:31:58.221Z,2.48
2023-01-09T04:34:27.879Z,2.49
2023-01-09T04:36:57.735Z,2.51
2023-01-09T04:39:27.605Z,2.52
2023-01-09T04:41:57.237Z,2.52
2023-01-09T04:44:26.730Z,2.56
2023-01-09T04:46:59.213Z,2.59
2023-01-09T04:49:28.571Z,2.62
2023-01-09T04:51:57.894Z,2.65
2023-01-09T04:54:27.887Z,2.67
2023-01-09T04:56:57.189Z,2.68
2023-01-09T04:59:26.369Z,2.69
2023-01-09T05:01:56.392Z,2.69
2023-01-09T05:04:26.398Z,2.66
2023-01-09T05:06:55.634Z,2.61
2023-01-09T05:09:24.942Z,2.57
2023-01-09T05:11:54.271Z,2.54
2023-01-09T05:14:23.444Z,2.54
2023-01-09T05:16:52.638Z,2.54
2023-01-09T05:19:21.791Z,2.55
2023-01-09T05:21:51.351Z,2.56
2023-01-09T05:24:20.656Z,2.57
2023-01-09T05:26:49.939Z,2.61
2023-01-09T05:29:19.120Z,2.63
2023-01-09T05:31:48.341Z,2.67
2023-01-09T05:34:17.513Z,2.68
2023-01-09T05:36:46.694Z,2.66
2023-01-09T05:39:16.047Z,2.65
2023-01-09T05:41:45.218Z,2.64
2023-01-09T05:44:14.651Z,2.64
2023-01-09T05:46:43.818Z,2.66
2023-01-09T05:49:12.992Z,2.69
2023-01-09T05:51:42.292Z,2.73
2023-01-09T05:54:11.385Z,2.78
2023-01-09T05:56:40.628Z,2.77
2023-01-09T05:59:10.108Z,2.77
2023-01-09T06:01:39.342Z,2.79
2023-01-09T06:04:08.419Z,2.80
2023-01-09T06:06:37.631Z,2.79
2023-01-09T06:09:07.820Z,2.79
2023-01-09T06:11:38.546Z,2.78
2023-01-09T06:14:08.052Z,2.79
2023-01-09T06:16:37.371Z,2.80
2023-01-09T06:19:06.874Z,2.84
2023-01-09T06:21:36.094Z,2.87
2023-01-09T06:24:06.012Z,2.90
2023-01-09T06:26:35.222Z,2.93
2023-01-09T06:29:04.345Z,2.94
2023-01-09T06:31:33.436Z,2.97
2023-01-09T06:34:02.690Z,3.00
2023-01-09T06:36:31.834Z,3.02
2023-01-09T06:39:01.297Z,3.05
2023-01-09T06:41:30.534Z,3.09
2023-01-09T06:43:59.646Z,3.14
2023-01-09T06:46:28.802Z,3.19
2023-01-09T06:48:57.967Z,3.22
2023-01-09T06:51:27.098Z,3.24
2023-01-09T06:53:56.261Z,3.28
2023-01-09T06:56:25.311Z,3.32
2023-01-09T06:58:54.526Z,3.38
2023-01-09T07:01:23.876Z,3.39
2023-01-09T07:03:53.147Z,3.42
2023-01-09T07:06:22.402Z,3.46
2023-01-09T07:08:51.440Z,3.48
2023-01-09T07:11:20.614Z,3.49
2023-01-09T07:13:50.532Z,3.50
2023-01-09T07:16:19.775Z,3.51
2023-01-09T07:18:49.137Z,3.54
2023-01-09T07:21:18.360Z,3.57
2023-01-09T07:23:47.468Z,3.57
2023-01-09T07:26:16.721Z,3.58
2023-01-09T07:28:46.217Z,3.58
2023-01-09T07:31:15.249Z,3.60
2023-01-09T07:33:44.270Z,3.62
2023-01-09T07:36:13.521Z,3.62
2023-01-09T07:38:43.241Z,3.60
2023-01-09T07:41:12.445Z,3.60
2023-01-09T07:43:41.654Z,3.60
2023-01-09T07:46:10.751Z,3.58
2023-01-09T07:48:39.829Z,3.59
2023-01-09T07:51:10.615Z,3.61
2023-01-09T07:53:44.233Z,3.62
2023-01-09T07:56:13.354Z,3.65
2023-01-09T07:58:42.447Z,3.68
2023-01-09T08:01:11.754Z,3.72
2023-01-09T08:03:41.168Z,3.72
2023-01-09T08:06:10.452Z,3.71
2023-01-09T08:08:39.606Z,3.70
2023-01-09T08:11:08.847Z,3.74
2023-01-09T08:13:37.893Z,3.78
2023-01-09T08:16:08.138Z,3.82
2023-01-09T08:18:37.464Z,3.87
2023-01-09T08:21:06.976Z,3.93
2023-01-09T08:23:36.156Z,3.97
2023-01-09T08:26:06.042Z,4.00
2023-01-09T08:28:35.117Z,3.99
2023-01-09T08:31:04.237Z,3.98
2023-01-09T08:33:33.461Z,4.00
2023-01-09T08:36:02.689Z,4.02
2023-01-09T08:38:32.316Z,4.03
2023-01-09T08:41:21.414Z,4.08
2023-01-09T08:44:08.911Z,4.11
2023-01-09T08:46:56.513Z,4.10
2023-01-09T08:49:25.667Z,4.13
2023-01-09T08:51:54.853Z,4.20
2023-01-09T08:54:24.038Z,4.24
2023-01-09T08:56:53.374Z,4.26
2023-01-09T08:59:22.798Z,4.25
2023-01-09T09:01:52.095Z,4.22
2023-01-09T09:04:21.435Z,4.19
2023-01-09T09:06:50.569Z,4.18
2023-01-09T09:09:19.627Z,4.20
2023-01-09T09:11:48.733Z,4.24
2023-01-09T09:14:36.611Z,4.29
2023-01-09T09:17:05.685Z,4.37
2023-01-09T09:19:34.871Z,4.45
2023-01-09T09:22:04.065Z,4.53
2023-01-09T09:24:33.169Z,4.61
2023-01-09T09:27:02.303Z,4.65
2023-01-09T09:29:31.352Z,4.70
2023-01-09T09:32:01.234Z,4.77
2023-01-09T09:34:30.506Z,4.82
2023-01-09T09:37:00.375Z,4.86
2023-01-09T09:39:29.616Z,4.87
2023-01-09T09:42:42.358Z,4.90
2023-01-09T09:46:01.213Z,4.90
2023-01-09T09:48:43.361Z,4.89
2023-01-09T09:51:52.154Z,4.88
2023-01-09T09:54:47.385Z,4.89
2023-01-09T09:57:24.017Z,4.92
2023-01-09T09:59:54.227Z,4.95
2023-01-09T10:02:33.032Z,4.99
2023-01-09T10:05:29.216Z,5.04
2023-01-09T10:08:39.303Z,5.07
2023-01-09T10:11:28.804Z,5.12
2023-01-09T10:14:16.053Z,5.17
2023-01-09T10:17:04.805Z,5.21
2023-01-09T10:19:49.354Z,5.27
2023-01-09T10:22:53.275Z,5.30
2023-01-09T10:25:45.306Z,5.35
2023-01-09T10:28:26.061Z,5.40
2023-01-09T10:31:30.393Z,5.45
2023-01-09T10:34:55.512Z,5.51
2023-01-09T10:37:33.886Z,5.57
2023-01-09T10:40:21.075Z,5.63
2023-01-09T10:43:00.421Z,5.70
2023-01-09T10:45:50.975Z,5.77
2023-01-09T10:48:36.915Z,5.84
2023-01-09T10:51:35.719Z,5.90
2023-01-09T10:54:15.508Z,5.96
2023-01-09T10:57:19.338Z,6.02
2023-01-09T10:59:48.791Z,6.04
2023-01-09T11:02:35.665Z,6.10
2023-01-09T11:05:05.181Z,6.16
2023-01-09T11:07:42.462Z,6.21
2023-01-09T11:10:15.926Z,6.26
2023-01-09T11:12:47.836Z,6.30
2023-01-09T11:15:19.708Z,6.33
2023-01-09T11:17:51.898Z,6.35
2023-01-09T11:20:28.547Z,6.39
2023-01-09T11:22:59.228Z,6.41
2023-01-09T11:25:31.015Z,6.46
2023-01-09T11:28:04.919Z,6.54
2023-01-09T11:30:52.744Z,6.56
2023-01-09T11:33:31.880Z,6.53
2023-01-09T11:36:15.837Z,6.52
2023-01-09T11:39:01.311Z,6.52
2023-01-09T11:41:42.568Z,6.60
2023-01-09T11:44:15.984Z,6.63
2023-01-09T11:46:45.950Z,6.69
2023-01-09T11:49:15.337Z,6.61
2023-01-09T11:51:45.482Z,6.62
2023-01-09T11:54:30.582Z,6.63
2023-01-09T11:57:00.566Z,6.73
2023-01-09T11:59:31.764Z,6.87
2023-01-09T12:02:28.823Z,6.98
2023-01-09T12:05:22.427Z,7.11
2023-01-09T12:08:06.128Z,7.20
2023-01-09T12:11:12.574Z,7.27
2023-01-09T12:14:14.445Z,7.33
2023-01-09T12:16:58.812Z,7.33
2023-01-09T12:19:58.912Z,7.30
2023-01-09T12:22:57.444Z,7.23
2023-01-09T12:26:17.328Z,7.21
2023-01-09T12:29:01.163Z,7.18
2023-01-09T12:32:15.795Z,7.21
2023-01-09T12:35:08.739Z,7.23
2023-01-09T12:37:40.846Z,7.27
2023-01-09T12:40:16.251Z,7.22
2023-01-09T12:43:10.251Z,7.25
2023-01-09T12:46:19.366Z,7.30
2023-01-09T12:49:03.495Z,7.35
2023-01-09T12:51:55.616Z,7.37
2023-01-09T12:54:43.157Z,7.38
2023-01-09T12:57:38.442Z,7.41
2023-01-09T13:00:40.448Z,7.45
2023-01-09T13:03:20.985Z,7.45
2023-01-09T13:05:54.014Z,7.44
2023-01-09T13:08:42.804Z,7.44
2023-01-09T13:11:38.408Z,7.44
2023-01-09T13:14:40.316Z,7.43
2023-01-09T13:17:20.389Z,7.36
2023-01-09T13:19:51.201Z,7.32
2023-01-09T13:22:25.976Z,7.33
2023-01-09T13:25:32.803Z,7.32
2023-01-09T13:28:20.648Z,7.31
2023-01-09T13:31:24.297Z,7.27
2023-01-09T13:34:02.899Z,7.28
2023-01-09T13:36:40.294Z,7.32
2023-01-09T13:39:30.264Z,7.32
2023-01-09T13:42:24.700Z,7.31
2023-01-09T13:44:56.883Z,7.30
2023-01-09T13:47:29.986Z,7.22
2023-01-09T13:50:22.045Z,7.23
2023-01-09T13:52:52.406Z,7.26
2023-01-09T13:55:29.128Z,7.28
2023-01-09T13:58:08.787Z,7.30
2023-01-09T14:00:39.248Z,7.33
2023-01-09T14:03:33.414Z,7.35
2023-01-09T14:06:12.249Z,7.37
2023-01-09T14:08:46.029Z,7.38
2023-01-09T14:11:27.038Z,7.37
2023-01-09T14:14:05.000Z,7.36
2023-01-09T14:16:36.955Z,7.36
2023-01-09T14:19:18.819Z,7.37
2023-01-09T14:21:58.237Z,7.35
2023-01-09T14:24:46.484Z,7.34
2023-01-09T14:27:59.833Z,7.34
2023-01-09T14:30:34.073Z,7.34
2023-01-09T14:33:05.316Z,7.34
2023-01-09T14:35:51.326Z,7.36
2023-01-09T14:38:29.810Z,7.36
2023-01-09T14:41:52.241Z,7.32
2023-01-09T14:44:42.953Z,7.29
2023-01-09T14:47:15.360Z,7.29
2023-01-09T14:50:35.873Z,7.29
2023-01-09T14:53:15.554Z,7.28
2023-01-09T14:55:58.196Z,7.31
2023-01-09T14:58:36.467Z,7.31
2023-01-09T15:01:22.956Z,7.28
2023-01-09T15:04:01.239Z,7.25
2023-01-09T15:06:37.681Z,7.24
2023-01-09T15:09:26.325Z,7.20
2023-01-09T15:12:04.033Z,7.19
2023-01-09T15:14:48.981Z,7.21
2023-01-09T15:17:28.836Z,7.20
2023-01-09T15:20:06.334Z,7.18
2023-01-09T15:22:38.819Z,7.19
2023-01-09T15:25:44.918Z,7.22
2023-01-09T15:28:27.881Z,7.22
2023-01-09T15:31:11.434Z,7.22
2023-01-09T15:33:54.205Z,7.23
2023-01-09T15:36:31.306Z,7.26
2023-01-09T15:39:01.678Z,7.27
2023-01-09T15:41:51.086Z,7.28
2023-01-09T15:50:04.933Z,7.19
2023-01-09T15:52:35.688Z,7.20
2023-01-09T15:55:37.581Z,7.24
2023-01-09T15:58:30.386Z,7.27
2023-01-09T16:01:08.295Z,7.30
2023-01-09T16:03:39.144Z,7.33
2023-01-09T16:06:30.904Z,7.32
2023-01-09T16:09:05.588Z,7.33
2023-01-09T16:11:39.110Z,7.33
2023-01-09T16:14:38.775Z,7.25
2023-01-09T16:17:16.546Z,7.24
2023-01-09T16:20:13.072Z,7.24
2023-01-09T16:22:57.140Z,7.24
2023-01-09T16:25:31.624Z,7.23
2023-01-09T16:28:30.895Z,7.23
2023-01-09T16:31:31.146Z,7.22
2023-01-09T16:34:07.537Z,7.23
2023-01-09T16:36:37.531Z,7.24
2023-01-09T16:39:22.100Z,7.28
2023-01-09T16:42:11.524Z,7.29
2023-01-09T16:44:45.864Z,7.29
2023-01-09T16:47:20.464Z,7.28
2023-01-09T16:49:51.877Z,7.28
2023-01-09T16:52:26.972Z,7.28
2023-01-09T16:54:58.741Z,7.29
2023-01-09T16:57:28.649Z,7.30
2023-01-09T17:00:01.752Z,7.31
2023-01-09T17:02:34.035Z,7.33
2023-01-09T17:05:08.202Z,7.34
2023-01-09T17:07:40.328Z,7.35
2023-01-09T17:10:21.670Z,7.37
2023-01-09T17:12:53.505Z,7.38
2023-01-09T17:15:26.486Z,7.39
2023-01-09T17:17:58.414Z,7.39
2023-01-09T17:20:30.051Z,7.38
2023-01-09T17:22:59.615Z,7.38
2023-01-09T17:25:47.695Z,7.38
2023-01-09T17:28:36.207Z,7.38
2023-01-09T17:31:10.412Z,7.39
2023-01-09T17:33:43.149Z,7.40
2023-01-09T17:36:27.357Z,7.42
2023-01-09T17:38:57.155Z,7.43
2023-01-09T17:41:32.115Z,7.45
2023-01-09T17:44:13.992Z,7.46
2023-01-09T17:46:48.829Z,7.48
2023-01-09T17:49:28.464Z,7.51
2023-01-09T17:52:02.610Z,7.53
2023-01-09T17:54:41.119Z,7.53
2023-01-09T17:57:20.981Z,7.52
2023-01-09T17:59:56.111Z,7.52
2023-01-09T18:02:25.939Z,7.53
2023-01-09T18:04:56.014Z,7.54
2023-01-09T18:07:28.677Z,7.55
2023-01-09T18:10:02.378Z,7.56
2023-01-09T18:12:35.484Z,7.55
2023-01-09T18:15:06.157Z,7.54
2023-01-09T18:17:39.559Z,7.52
2023-01-09T18:20:32.286Z,7.50
2023-01-09T18:23:26.958Z,7.46
2023-01-09T18:26:00.689Z,7.46
2023-01-09T18:28:38.065Z,7.47
2023-01-09T18:31:09.030Z,7.46
2023-01-09T18:33:44.859Z,7.48
2023-01-09T18:36:31.808Z,7.50
2023-01-09T18:39:13.363Z,7.52
2023-01-09T18:41:43.385Z,7.50
2023-01-09T18:44:13.486Z,7.50
2023-01-09T18:46:47.391Z,7.51
2023-01-09T18:49:21.298Z,7.54
2023-01-09T18:51:56.703Z,7.55
2023-01-09T18:54:28.969Z,7.55
2023-01-09T18:57:03.929Z,7.55
2023-01-09T18:59:36.767Z,7.55
2023-01-09T19:02:26.882Z,7.56
2023-01-09T19:05:14.232Z,7.57
2023-01-09T19:07:55.322Z,7.60
2023-01-09T19:10:26.791Z,7.60
2023-01-09T19:12:56.903Z,7.61
2023-01-09T19:15:30.137Z,7.61
2023-01-09T19:18:15.834Z,7.62
2023-01-09T19:20:59.110Z,7.61
2023-01-09T19:23:32.980Z,7.61
2023-01-09T19:26:08.762Z,7.60
2023-01-09T19:28:45.853Z,7.61
2023-01-09T19:31:25.803Z,7.61
2023-01-09T19:34:05.330Z,7.60
2023-01-09T19:36:38.785Z,7.59
2023-01-09T19:39:14.054Z,7.57
2023-01-09T19:41:47.797Z,7.56
2023-01-09T19:44:23.521Z,7.52
2023-01-09T19:46:57.742Z,7.47
2023-01-09T19:49:35.550Z,7.44
2023-01-09T19:52:07.132Z,7.40
2023-01-09T19:54:37.068Z,7.32
2023-01-09T19:57:07.044Z,7.24
2023-01-09T19:59:40.229Z,7.18
2023-01-09T20:02:13.595Z,7.14
2023-01-09T20:04:44.014Z,7.09
2023-01-09T20:07:18.640Z,7.05
2023-01-09T20:10:42.416Z,6.97
2023-01-09T20:13:31.457Z,6.92
2023-01-09T20:16:11.844Z,6.88
2023-01-09T20:18:47.722Z,6.83
2023-01-09T20:24:18.845Z,6.76
2023-01-09T20:27:08.053Z,6.71
2023-01-09T20:29:48.179Z,6.67
2023-01-09T20:35:56.953Z,6.60
2023-01-09T20:39:07.450Z,6.55
2023-01-09T20:41:56.107Z,6.53
2023-01-09T20:44:52.508Z,6.50
2023-01-09T20:47:29.367Z,6.49
2023-01-09T20:50:01.121Z,6.50
2023-01-09T20:52:33.713Z,6.51
2023-01-09T20:55:11.491Z,6.50
2023-01-09T20:57:49.163Z,6.47
2023-01-09T21:00:32.497Z,6.46
2023-01-09T21:03:07.745Z,6.44
2023-01-09T21:05:54.228Z,6.44
2023-01-09T21:08:36.451Z,6.45
2023-01-09T21:11:06.436Z,6.44
2023-01-09T21:13:36.990Z,6.45
2023-01-09T21:16:20.344Z,6.46
2023-01-09T21:18:55.297Z,6.44
2023-01-09T21:21:50.935Z,6.41
2023-01-09T21:24:31.045Z,6.39
2023-01-09T21:27:25.915Z,6.36
2023-01-09T21:29:58.213Z,6.34
2023-01-09T21:32:38.107Z,6.34
2023-01-09T21:35:17.279Z,6.31
2023-01-09T21:37:49.763Z,6.30
2023-01-09T21:40:26.094Z,6.28
2023-01-09T21:43:57.769Z,6.26
2023-01-09T21:47:21.451Z,6.19
2023-01-09T21:53:33.890Z,6.06
2023-01-09T21:56:53.789Z,6.03
2023-01-09T21:59:33.504Z,6.01
2023-01-09T22:02:23.163Z,6.04
2023-01-09T22:05:00.380Z,6.03
2023-01-09T22:07:34.158Z,6.03
2023-01-09T22:10:24.951Z,6.02
2023-01-09T22:13:21.571Z,6.00
2023-01-09T22:16:06.212Z,5.97
2023-01-09T22:18:41.148Z,5.95
2023-01-09T22:21:19.245Z,5.95
2023-01-09T22:23:57.661Z,5.94
2023-01-09T22:26:29.797Z,5.93
2023-01-09T22:29:20.736Z,5.92
2023-01-09T22:32:18.873Z,5.88
2023-01-09T22:35:04.969Z,5.81
2023-01-09T22:37:38.784Z,5.77
2023-01-09T22:40:13.928Z,5.74
2023-01-09T22:42:43.630Z,5.71
2023-01-09T22:45:16.622Z,5.69
2023-01-09T22:47:52.527Z,5.65
2023-01-09T22:50:23.229Z,5.62
2023-01-09T22:52:58.450Z,5.61
2023-01-09T22:55:37.530Z,5.59
2023-01-09T22:58:10.831Z,5.57
2023-01-09T23:00:45.493Z,5.55
2023-01-09T23:09:12.141Z,5.40
2023-01-09T23:12:08.290Z,5.30
2023-01-09T23:14:45.596Z,5.30
2023-01-09T23:17:17.534Z,5.31
2023-01-09T23:19:58.024Z,5.30
2023-01-09T23:22:33.459Z,5.31
2023-01-09T23:25:10.653Z,5.32
2023-01-09T23:27:41.072Z,5.34
2023-01-09T23:30:16.594Z,5.35
2023-01-09T23:32:49.249Z,5.36
2023-01-09T23:35:23.172Z,5.37
2023-01-09T23:37:54.135Z,5.38
2023-01-09T23:40:28.566Z,5.40
2023-01-09T23:43:13.087Z,5.39
2023-01-09T23:45:54.722Z,5.39
2023-01-09T23:48:38.558Z,5.36
2023-01-09T23:51:09.929Z,5.34
2023-01-09T23:53:44.762Z,5.33
2023-01-09T23:56:14.405Z,5.33
2023-01-09T23:58:52.616Z,5.35
